Time;durP1;ratioP1;P1;durP2;ratioP2;P2;SDS_P1;SDS_P2;PMS_P1;PMS_P2;Temp;Humidity;BMP_temperature;BMP_pressure;BME280_temperature;BME280_humidity;BME280_pressure;Samples;Min_cycle;Max_cycle;Signal;HPM_P1;HPM_P2
2022/05/24 03:29:39;;;;;;;;;;;;;;;10.59;100.00;98406.44;6207008;22;19935;-87
2022/05/24 03:32:06;;;;;;;;;;;;;;;10.62;100.00;98418.66;6187764;23;19951;-87
2022/05/24 03:34:31;;;;;;;;;;;;;;;10.45;100.00;98422.38;6213387;23;19915;-87
2022/05/24 03:36:56;;;;;;;;;;;;;;;10.58;100.00;98417.16;6214617;23;19916;-89
2022/05/24 03:39:21;;;;;;;;;;;;;;;10.53;100.00;98415.66;6214772;23;19912;-86
2022/05/24 03:41:47;;;;;;;;;;;;;;;10.58;100.00;98422.44;6214462;23;20010;-87
2022/05/24 03:44:12;;;;;;;;;;;;;;;10.44;100.00;98418.91;6212756;23;19999;-86
2022/05/24 03:46:38;;;;;;;;;;;;;;;10.50;100.00;98420.31;6214379;23;19916;-86
2022/05/24 03:49:05;;;;;;;;;;;;;;;10.46;99.98;98432.03;6214818;23;20316;-87
2022/05/24 03:51:30;;;;;;;;;;;;;;;10.43;99.98;98441.00;6214546;23;20328;-86
2022/05/24 03:53:56;;;;;;;;;;;;;;;10.33;100.00;98450.50;6187805;23;19919;-88
2022/05/24 03:56:21;;;;;;;;;;;;;;;10.52;100.00;98463.44;6214451;23;20315;-85
2022/05/24 03:58:46;;;;;;;;;;;;;;;10.34;99.78;98462.81;6212802;23;19912;-86
2022/05/24 04:01:12;;;;;;;;;;;;;;;10.38;100.00;98463.47;6214426;23;19942;-86
2022/05/24 04:03:37;;;;;;;;;;;;;;;10.31;100.00;98469.09;6214817;23;20320;-86
2022/05/24 04:06:03;;;;;;;;;;;;;;;10.53;100.00;98467.78;6214405;23;19990;-86
2022/05/24 04:08:29;;;;;;;;;;;;;;;10.45;100.00;98475.34;6216575;23;19947;-86
2022/05/24 04:11:02;;;;;;;;;;;;;;;10.49;100.00;98488.31;6216363;23;20335;-87
2022/05/24 04:13:28;;;;;;;;;;;;;;;10.54;100.00;98485.34;6215415;23;19912;-86
2022/05/24 04:15:53;;;;;;;;;;;;;;;10.45;100.00;98491.22;6215801;23;19912;-85
2022/05/24 04:18:18;;;;;;;;;;;;;;;10.40;100.00;98495.97;6216156;23;19954;-87
2022/05/24 04:20:44;;;;;;;;;;;;;;;10.47;100.00;98508.75;6216484;23;20386;-87
2022/05/24 04:23:13;;;;;;;;;;;;;;;10.52;100.00;98504.00;6216024;23;19920;-85
2022/05/24 04:25:38;;;;;;;;;;;;;;;10.35;100.00;98504.19;6216056;23;20327;-85
2022/05/24 04:28:04;;;;;;;;;;;;;;;10.47;100.00;98513.19;6189539;23;19999;-85
2022/05/24 04:30:29;;;;;;;;;;;;;;;10.39;100.00;98518.09;6214562;23;19920;-85
2022/05/24 04:32:55;;;;;;;;;;;;;;;10.53;100.00;98511.00;6215841;23;19966;-85
2022/05/24 04:35:20;;;;;;;;;;;;;;;10.53;100.00;98512.81;6216365;23;20371;-86
2022/05/24 04:37:45;;;;;;;;;;;;;;;10.53;100.00;98511.00;6216011;23;19954;-85
2022/05/24 04:40:11;;;;;;;;;;;;;;;10.52;100.00;98504.00;6215925;23;19958;-85
2022/05/24 04:42:36;;;;;;;;;;;;;;;10.36;100.00;98504.09;6215839;23;19912;-86
2022/05/24 04:45:06;;;;;;;;;;;;;;;10.34;100.00;98510.47;6214167;23;19919;-87
2022/05/24 04:47:31;;;;;;;;;;;;;;;10.38;100.00;98519.91;6214407;23;19916;-86
2022/05/24 04:49:58;;;;;;;;;;;;;;;10.50;100.00;98515.66;6215839;23;19915;-85
2022/05/24 04:52:25;;;;;;;;;;;;;;;10.35;100.00;98533.31;6215596;23;19912;-87
2022/05/24 04:54:51;;;;;;;;;;;;;;;10.47;100.00;98534.38;6215783;23;19912;-86
2022/05/24 07:57:41;;;;;;;;;;;;;;;9.92;98.28;98805.81;6226874;23;19931;-89
2022/05/24 08:18:53;;;;;;;;;;;;;;;10.50;98.67;98796.38;6224229;22;20347;-92
2022/05/24 08:21:19;;;;;;;;;;;;;;;11.43;100.00;98797.84;6216560;23;19916;-90
2022/05/24 08:23:52;;;;;;;;;;;;;;;12.38;100.00;98805.16;6215781;23;19912;-90
2022/05/24 08:42:37;;;;;;;;;;;;;;;;;;;;;
2022/05/24 08:54:58;;;;;;;;;;;;;;;;;;;;;
2022/05/24 09:10:25;;;;;;;;;;;;;;;10.16;97.57;98859.16;5935611;24;19995;-91
2022/05/24 09:28:41;;;;;;;;;;;;;;;;;;;;;
2022/05/24 09:37:35;;;;;;;;;;;;;;;10.31;95.92;98873.34;5806876;24;19992;-91
2022/05/24 10:00:57;;;;;;;;;;;;;;;;;;;;;
2022/05/24 10:07:17;;;;;;;;;;;;;;;;;;;;;
2022/05/24 16:22:57;;;;;;;;;;;;;;;9.60;92.06;99001.50;4722042;23;19929;-86
2022/05/24 16:44:14;;;;;;;;;;;;;;;9.37;95.54;98984.19;4720243;30;19931;-88
2022/05/24 16:53:32;;;;;;;;;;;;;;;;;;;;;
2022/05/24 17:56:38;;;;;;;;;;;;;;;;;;;;;
2022/05/24 17:59:26;;;;;;;;;;;;;;;;;;;;;
2022/05/24 18:12:00;;;;;;;;;;;;;;;;;;;;;
2022/05/24 18:18:10;;;;;;;;;;;;;;;;;;;;;
2022/05/24 18:21:17;;;;;;;;;;;;;;;9.19;95.20;99087.25;6000181;23;19990;-92
2022/05/24 18:33:34;;;;;;;;;;;;;;;;;;;;;
2022/05/24 18:36:39;;;;;;;;;;;;;;;;;;;;;
2022/05/24 18:42:49;;;;;;;;;;;;;;;;;;;;;
2022/05/24 18:48:23;;;;;;;;;;;;;;;9.34;95.17;99100.66;6024588;23;19970;-88
2022/05/24 18:53:48;;;;;;;;;;;;;;;9.35;94.94;99097.06;6306166;22;19965;-89
2022/05/24 18:56:29;;;;;;;;;;;;;;;;;;;;;
2022/05/24 18:59:08;;;;;;;;;;;;;;;9.33;95.38;99104.22;6305960;22;20013;-88
2022/05/24 19:01:33;;;;;;;;;;;;;;;9.41;95.38;99104.69;6278185;22;19986;-86
2022/05/24 19:03:59;;;;;;;;;;;;;;;9.40;95.38;99103.84;6306150;22;19953;-87
2022/05/24 19:06:24;;;;;;;;;;;;;;;9.33;95.46;99102.41;6306188;22;19960;-88
2022/05/24 19:08:49;;;;;;;;;;;;;;;9.40;95.66;99111.78;6278473;22;19941;-85
2022/05/24 19:11:17;;;;;;;;;;;;;;;9.26;95.45;99122.19;6304369;22;19915;-87
2022/05/24 19:13:44;;;;;;;;;;;;;;;9.31;96.02;99120.16;6305044;22;19915;-87
2022/05/24 19:16:13;;;;;;;;;;;;;;;9.30;95.58;99122.88;6305701;22;19986;-87
2022/05/24 19:18:41;;;;;;;;;;;;;;;9.30;95.89;99130.81;6277736;22;20277;-87
2022/05/24 19:21:06;;;;;;;;;;;;;;;9.32;96.20;99137.75;6305298;22;19962;-89
2022/05/24 19:23:31;;;;;;;;;;;;;;;9.40;96.30;99135.59;6278612;22;19913;-84
2022/05/24 19:25:59;;;;;;;;;;;;;;;9.38;95.92;99145.38;6304620;22;19922;-85
2022/05/24 19:28:24;;;;;;;;;;;;;;;9.37;96.08;99146.31;6305209;22;20369;-85
2022/05/24 19:30:49;;;;;;;;;;;;;;;9.31;96.02;99157.16;6305545;22;19911;-85
2022/05/24 19:33:15;;;;;;;;;;;;;;;9.29;96.13;99163.47;6278941;22;19911;-85
2022/05/24 19:35:40;;;;;;;;;;;;;;;9.26;96.03;99173.25;6305952;22;20327;-85
2022/05/24 19:38:06;;;;;;;;;;;;;;;9.30;96.05;99163.38;6305908;22;20227;-85
2022/05/24 19:43:50;;;;;;;;;;;;;;;9.34;95.68;99169.41;6306812;22;19918;-88
2022/05/24 19:46:24;;;;;;;;;;;;;;;9.27;95.72;99172.34;6299750;22;20224;-88
2022/05/24 19:49:05;;;;;;;;;;;;;;;;;;;;;
2022/05/24 19:51:42;;;;;;;;;;;;;;;9.36;96.22;99167.53;6261871;22;19998;-94
2022/05/24 19:54:08;;;;;;;;;;;;;;;9.37;96.00;99171.91;6218554;23;19912;-92
2022/05/24 19:56:35;;;;;;;;;;;;;;;9.31;96.14;99169.53;6243072;23;19966;-88
2022/05/24 19:59:01;;;;;;;;;;;;;;;9.27;95.85;99174.97;6217369;23;20232;-88
2022/05/24 20:01:26;;;;;;;;;;;;;;;9.22;96.26;99184.91;6217625;23;19915;-86
2022/05/24 20:03:51;;;;;;;;;;;;;;;9.25;96.28;99187.41;6244316;23;19912;-87
2022/05/24 20:06:18;;;;;;;;;;;;;;;9.18;96.20;99180.69;6244090;23;19916;-86
2022/05/24 20:08:43;;;;;;;;;;;;;;;9.32;96.46;99192.38;6244213;23;19912;-85
2022/05/24 20:13:44;;;;;;;;;;;;;;;9.25;96.09;99192.69;6299883;22;19919;-85
2022/05/24 20:16:12;;;;;;;;;;;;;;;9.24;96.40;99204.19;6278385;22;19921;-87
2022/05/24 20:18:42;;;;;;;;;;;;;;;9.29;96.10;99203.97;6278595;22;19915;-86
2022/05/24 20:21:08;;;;;;;;;;;;;;;9.30;96.22;99204.81;6305538;22;19994;-86
2022/05/24 20:30:12;;;;;;;;;;;;;;;9.24;96.43;99212.13;6167005;23;20360;-87
2022/05/24 20:32:58;;;;;;;;;;;;;;;9.30;96.28;99210.13;6286820;22;19938;-87
2022/05/24 20:35:38;;;;;;;;;;;;;;;9.26;96.66;99209.41;6278147;22;19915;-87
2022/05/24 20:38:17;;;;;;;;;;;;;;;;;;;;;
2022/05/24 20:40:52;;;;;;;;;;;;;;;;;;;;;
2022/05/24 20:43:28;;;;;;;;;;;;;;;;;;;;;
2022/05/24 20:45:59;;;;;;;;;;;;;;;9.18;96.39;99212.41;6305239;22;19998;-86
2022/05/24 20:55:16;;;;;;;;;;;;;;;9.19;96.68;99223.81;6234794;22;19946;-90
2022/05/24 20:58:04;;;;;;;;;;;;;;;9.18;96.55;99228.25;6288021;22;19950;-86
2022/05/24 21:00:30;;;;;;;;;;;;;;;9.27;96.37;99227.00;6305256;22;19915;-84
2022/05/24 21:03:06;;;;;;;;;;;;;;;9.27;96.06;99227.84;6278056;22;19961;-88
2022/05/24 21:05:32;;;;;;;;;;;;;;;9.23;96.19;99242.13;6305280;22;20314;-85
2022/05/24 21:08:20;;;;;;;;;;;;;;;9.22;96.23;99250.13;6305390;22;19914;-89
2022/05/24 21:10:48;;;;;;;;;;;;;;;9.27;96.74;99249.00;6303555;22;19915;-89
2022/05/24 21:13:14;;;;;;;;;;;;;;;9.33;95.99;99265.50;6277675;22;19957;-86
2022/05/24 21:15:39;;;;;;;;;;;;;;;9.33;96.02;99262.84;6305248;22;20235;-85
2022/05/24 21:18:04;;;;;;;;;;;;;;;9.26;95.76;99267.56;6305312;22;20077;-86
2022/05/24 21:20:33;;;;;;;;;;;;;;;9.26;95.93;99264.94;6305984;22;19989;-86
2022/05/24 21:23:00;;;;;;;;;;;;;;;9.20;95.65;99258.13;6278193;22;20199;-87
2022/05/24 21:28:15;;;;;;;;;;;;;;;9.23;95.99;99271.19;6305736;22;19922;-83
2022/05/24 21:30:48;;;;;;;;;;;;;;;9.16;95.77;99271.53;6305313;22;19911;-87
2022/05/24 21:33:22;;;;;;;;;;;;;;;9.15;95.84;99270.69;6277984;22;20015;-85
2022/05/24 21:35:57;;;;;;;;;;;;;;;;;;;;;
2022/05/24 21:38:24;;;;;;;;;;;;;;;9.15;96.19;99275.97;6305668;22;20422;-84
2022/05/24 21:41:15;;;;;;;;;;;;;;;9.20;95.75;99284.56;6304221;22;19918;-91
2022/05/24 21:43:42;;;;;;;;;;;;;;;9.22;95.97;99287.13;6286637;22;19915;-83
2022/05/24 21:46:12;;;;;;;;;;;;;;;9.27;95.84;99275.44;6307311;22;20002;-86
2022/05/24 21:48:40;;;;;;;;;;;;;;;9.24;95.89;99275.56;6307025;22;19911;-85
2022/05/24 21:51:08;;;;;;;;;;;;;;;9.12;95.92;99284.03;6307138;22;20353;-86
2022/05/24 21:53:34;;;;;;;;;;;;;;;9.25;96.54;99281.69;6306809;22;19919;-85
2022/05/24 21:56:07;;;;;;;;;;;;;;;9.30;95.99;99286.78;6305732;22;20273;-85
2022/05/24 21:58:33;;;;;;;;;;;;;;;9.26;96.10;99284.28;6279186;22;19917;-83
2022/05/24 22:00:59;;;;;;;;;;;;;;;9.18;95.94;99290.84;6306985;22;19935;-84
2022/05/24 22:03:29;;;;;;;;;;;;;;;9.30;96.22;99295.56;6306943;22;19993;-84
2022/05/24 22:05:55;;;;;;;;;;;;;;;9.35;96.57;99300.66;6306786;22;19990;-82
2022/05/24 22:08:21;;;;;;;;;;;;;;;9.22;96.26;99303.88;6279678;22;20246;-82
2022/05/24 22:10:47;;;;;;;;;;;;;;;9.21;96.73;99307.44;6305138;22;19915;-83
2022/05/24 22:13:13;;;;;;;;;;;;;;;9.15;96.63;99304.22;6307022;22;20311;-83
2022/05/24 22:15:39;;;;;;;;;;;;;;;9.13;96.54;99304.28;6306572;22;20369;-84
2022/05/24 22:18:04;;;;;;;;;;;;;;;9.19;96.61;99309.28;6306987;22;19910;-83
2022/05/24 22:20:30;;;;;;;;;;;;;;;9.22;96.17;99310.91;6311494;22;19968;-84
2022/05/24 22:22:56;;;;;;;;;;;;;;;9.25;96.45;99311.66;6338317;22;20230;-86
2022/05/24 22:25:22;;;;;;;;;;;;;;;9.12;96.50;99313.13;6336533;22;19907;-83
2022/05/24 22:27:48;;;;;;;;;;;;;;;9.09;96.98;99319.41;6337722;22;19915;-84
2022/05/24 22:30:13;;;;;;;;;;;;;;;9.16;96.83;99316.47;6337696;22;19926;-84
2022/05/24 22:32:39;;;;;;;;;;;;;;;9.04;96.79;99317.88;6337689;22;19914;-84
2022/05/24 22:35:06;;;;;;;;;;;;;;;9.06;96.66;99322.19;6338017;22;19926;-85
2022/05/24 22:37:31;;;;;;;;;;;;;;;9.01;96.77;99328.59;6337603;22;19924;-83
2022/05/24 22:39:57;;;;;;;;;;;;;;;9.13;96.57;99330.72;6336155;22;20412;-84
2022/05/24 22:42:22;;;;;;;;;;;;;;;9.08;96.36;99335.34;6337605;22;19985;-84
2022/05/24 22:44:57;;;;;;;;;;;;;;;9.16;96.28;99330.56;6337606;22;19995;-84
2022/05/24 22:47:26;;;;;;;;;;;;;;;9.13;96.54;99325.41;6337561;22;19933;-83
2022/05/24 22:49:51;;;;;;;;;;;;;;;9.15;96.52;99333.28;6310238;22;19942;-82
2022/05/24 22:52:16;;;;;;;;;;;;;;;9.03;96.18;99330.25;6337791;22;19914;-84
2022/05/24 22:54:42;;;;;;;;;;;;;;;9.06;96.42;99335.41;6337158;22;19918;-85
2022/05/24 22:57:10;;;;;;;;;;;;;;;9.02;96.24;99332.97;6336761;22;19918;-83
2022/05/24 22:59:35;;;;;;;;;;;;;;;9.08;96.22;99338.00;6337696;22;19997;-85
2022/05/24 23:02:01;;;;;;;;;;;;;;;8.98;96.10;99331.38;6337601;22;19953;-84
2022/05/24 23:04:26;;;;;;;;;;;;;;;9.05;96.21;99327.53;6310379;22;19949;-84
2022/05/24 23:06:51;;;;;;;;;;;;;;;9.07;96.04;99325.69;6337610;22;20315;-83
2022/05/24 23:09:17;;;;;;;;;;;;;;;9.07;95.92;99330.97;6337529;22;19915;-83
2022/05/24 23:11:42;;;;;;;;;;;;;;;9.03;95.57;99334.66;6335937;22;19966;-83
2022/05/24 23:14:09;;;;;;;;;;;;;;;8.99;95.35;99335.75;6337571;22;19911;-84
2022/05/24 23:16:35;;;;;;;;;;;;;;;9.06;95.43;99342.47;6337255;22;19910;-83
2022/05/24 23:19:00;;;;;;;;;;;;;;;9.02;95.45;99340.88;6337618;22;19914;-83
2022/05/24 23:21:26;;;;;;;;;;;;;;;8.94;95.06;99332.44;6337387;22;19918;-83
2022/05/24 23:23:51;;;;;;;;;;;;;;;9.00;95.11;99340.06;6337910;22;19915;-83
